Etusivu
METAR-TAF:

METAR-TAF

Lentoasemat :

Dakar, Senegal

Leveyspiiri: 14-44N, Pituuspiiri: 017-30W, korkeus merenpinnasta: 27 m

Tämänhetkinen sää

Tämä raportti tehtiin 19 tuntia ja 13 minuuttia sitten, kello 14.00 UTC
Tuuli 8 kn pohjoisesta
Lämpötila 22°C
Kosteus 73%
Ilmanpaine 1011 hPa
Näkyvyys 10 km tai enemmän
ei pilviä alle 1500 m:ssä eikä cumulonimbus-pilviä

METAR: GOOY 201400Z 36008KT CAVOK 22/17 Q1011

Aika: 09:13 (09:13 UTC)

Sääennuste

Tämä raportti tehtiin 21 tuntia ja 43 minuuttia sitten, kello 11.30 UTC
Ennuste voimassa 20. päivästä klo 12 UTC - 21. päivään klo 18 UTC
Tuuli 13 kn pohjoisesta
Näkyvyys 10 km tai enemmän
ei pilviä alle 1500 m:ssä eikä cumulonimbus-pilviä

TAF: GOOY 201130Z 2012/2118 36013KT CAVOK

Säähavainnot ja -ennusteet yli 4000 lentoasemalta (METAR- ja TAF-raportit).

Käytössä olevat sääasemat on merkitty karttaan keltaisilla ja punaisilla pisteillä.

Aseta hiiri pisteen päälle nähdäksesi sääaseman nimen.

Klikkaa sitten nähdäksesi säähavainnot ja -ennusteet.

Kartan vaihtaminen: klikkaa mustalla rastilla varustettuja vihreitä pisteitä, niin voit zoomata sisään; viivalla varustettua vihreää pistettä, niin voit zoomata ulos tai vihreitä nuolia, niin pääset viereisille kartoille.


METAR-TAF: